createdAt,value
2019-04-05T00:01:52.839Z,7.90
2019-04-05T00:04:21.544Z,7.90
2019-04-05T00:06:50.832Z,7.90
2019-04-05T00:09:19.923Z,7.80
2019-04-05T00:11:50.188Z,7.80
2019-04-05T00:14:20.508Z,7.70
2019-04-05T00:16:49.262Z,7.60
2019-04-05T00:19:18.333Z,7.50
2019-04-05T00:21:47.065Z,7.30
2019-04-05T00:24:16.584Z,7.20
2019-04-05T00:26:45.228Z,7.10
2019-04-05T00:29:15.429Z,7.00
2019-04-05T00:31:44.322Z,7.00
2019-04-05T00:34:14.535Z,6.90
2019-04-05T00:36:45.648Z,6.90
2019-04-05T00:39:14.470Z,6.80
2019-04-05T00:41:44.656Z,6.70
2019-04-05T00:44:13.732Z,6.70
2019-04-05T00:46:44.961Z,6.80
2019-04-05T00:49:13.804Z,6.80
2019-04-05T00:51:43.382Z,6.80
2019-04-05T00:54:13.629Z,6.80
2019-04-05T00:56:42.378Z,6.90
2019-04-05T00:59:11.101Z,6.90
2019-04-05T01:01:40.119Z,6.90
2019-04-05T01:04:09.546Z,6.90
2019-04-05T01:06:38.183Z,6.90
2019-04-05T01:09:08.122Z,6.90
2019-04-05T01:11:36.760Z,6.90
2019-04-05T01:14:05.705Z,6.80
2019-04-05T01:16:34.513Z,6.70
2019-04-05T01:19:04.539Z,6.60
2019-04-05T01:21:40.672Z,6.50
2019-04-05T01:24:12.048Z,6.50
2019-04-05T01:26:43.277Z,6.50
2019-04-05T01:29:14.813Z,6.40
2019-04-05T01:31:43.513Z,6.40
2019-04-05T01:34:12.276Z,6.40
2019-04-05T01:36:42.039Z,6.40
2019-04-05T01:39:10.858Z,6.50
2019-04-05T01:41:39.848Z,6.40
2019-04-05T01:44:08.635Z,6.40
2019-04-05T01:46:39.706Z,6.50
2019-04-05T01:49:08.445Z,6.40
2019-04-05T01:51:37.266Z,6.40
2019-04-05T01:54:06.145Z,6.50
2019-04-05T01:56:35.061Z,6.40
2019-04-05T01:59:04.222Z,6.50
2019-04-05T02:01:37.822Z,6.50
2019-04-05T02:04:05.250Z,6.40
2019-04-05T02:06:34.135Z,6.50
2019-04-05T02:09:03.049Z,6.60
2019-04-05T02:11:33.815Z,6.70
2019-04-05T02:14:04.137Z,6.80
2019-04-05T02:16:32.949Z,6.90
2019-04-05T02:19:01.822Z,6.90
2019-04-05T02:21:30.897Z,6.90
2019-04-05T02:24:01.775Z,6.90
2019-04-05T02:26:30.432Z,6.90
2019-04-05T02:28:59.326Z,6.80
2019-04-05T02:31:28.281Z,6.70
2019-04-05T02:33:58.527Z,6.60
2019-04-05T02:36:27.947Z,6.50
2019-04-05T02:38:56.936Z,6.40
2019-04-05T02:41:27.914Z,6.50
2019-04-05T02:43:58.737Z,6.40
2019-04-05T02:46:29.016Z,6.30
2019-04-05T02:48:59.742Z,6.20
2019-04-05T02:51:29.803Z,6.10
2019-04-05T02:54:00.867Z,6.10
2019-04-05T02:56:32.170Z,6.00
2019-04-05T02:59:03.065Z,6.00
2019-04-05T03:01:35.902Z,5.90
2019-04-05T03:04:08.176Z,5.80
2019-04-05T03:06:37.071Z,5.70
2019-04-05T03:09:07.178Z,5.60
2019-04-05T03:11:38.575Z,5.60
2019-04-05T03:14:10.197Z,5.50
2019-04-05T03:16:43.337Z,5.50
2019-04-05T03:19:16.973Z,5.60
2019-04-05T03:21:48.724Z,5.60
2019-04-05T03:24:20.344Z,5.50
2019-04-05T03:26:52.996Z,5.50
2019-04-05T03:29:21.772Z,5.50
2019-04-05T03:31:50.544Z,5.40
2019-04-05T03:34:19.464Z,5.50
2019-04-05T03:36:51.696Z,5.50
2019-04-05T03:39:20.573Z,5.50
2019-04-05T03:41:49.268Z,5.50
2019-04-05T03:44:18.158Z,5.40
2019-04-05T03:46:56.255Z,5.40
2019-04-05T03:49:20.055Z,5.30
2019-04-05T03:51:49.766Z,5.20
2019-04-05T03:54:19.956Z,5.20
2019-04-05T03:56:48.785Z,5.10
2019-04-05T03:59:17.876Z,5.10
2019-04-05T04:01:46.715Z,5.00
2019-04-05T04:04:16.748Z,5.00
2019-04-05T04:06:47.081Z,5.00
2019-04-05T04:09:15.898Z,5.10
2019-04-05T04:11:46.244Z,5.10
2019-04-05T04:14:14.935Z,5.00
2019-04-05T04:16:44.073Z,4.90
2019-04-05T04:19:13.523Z,4.90
2019-04-05T04:21:50.770Z,4.90
2019-04-05T04:24:20.210Z,4.90
2019-04-05T04:26:50.957Z,4.90
2019-04-05T04:29:20.960Z,5.00
2019-04-05T04:31:54.762Z,5.00
2019-04-05T04:34:23.864Z,5.10
2019-04-05T04:36:52.960Z,5.10
2019-04-05T04:39:21.904Z,5.20
2019-04-05T04:41:52.715Z,5.30
2019-04-05T04:44:21.766Z,5.40
2019-04-05T04:46:51.888Z,5.50
2019-04-05T04:49:20.777Z,5.60
2019-04-05T04:51:49.959Z,5.70
2019-04-05T04:54:18.790Z,5.80
2019-04-05T04:56:48.136Z,5.90
2019-04-05T04:59:24.586Z,6.00
2019-04-05T05:01:54.069Z,6.20
2019-04-05T05:04:23.305Z,6.30
2019-04-05T05:06:55.489Z,6.40
2019-04-05T05:09:26.238Z,6.60
2019-04-05T05:11:56.444Z,6.90
2019-04-05T05:14:25.896Z,7.00
2019-04-05T05:16:57.712Z,7.30
2019-04-05T05:19:28.018Z,7.50
2019-04-05T05:21:58.756Z,7.80
2019-04-05T05:24:28.696Z,8.30
2019-04-05T05:26:57.915Z,8.70
2019-04-05T05:29:26.696Z,9.20
2019-04-05T05:31:55.658Z,9.70
2019-04-05T05:34:24.315Z,10.00
2019-04-05T05:36:55.920Z,10.40
2019-04-05T05:39:24.950Z,10.70
2019-04-05T05:41:54.147Z,10.90
2019-04-05T05:44:23.383Z,11.20
2019-04-05T05:46:53.525Z,11.60
2019-04-05T05:49:30.003Z,12.00
2019-04-05T05:51:57.509Z,12.10
2019-04-05T05:54:27.318Z,12.40
2019-04-05T05:56:56.292Z,12.80
2019-04-05T05:59:29.652Z,12.80
2019-04-05T06:01:59.271Z,12.80
2019-04-05T06:04:28.948Z,12.80
2019-04-05T06:07:00.724Z,13.10
2019-04-05T06:09:29.673Z,13.30
2019-04-05T06:11:58.878Z,13.50
2019-04-05T06:14:27.893Z,13.50
2019-04-05T06:16:57.569Z,13.60
2019-04-05T06:19:29.396Z,13.60
2019-04-05T06:21:58.089Z,13.80
2019-04-05T06:24:28.298Z,13.90
2019-04-05T06:26:59.192Z,13.70
2019-04-05T06:29:33.276Z,14.10
2019-04-05T06:32:02.442Z,14.50
2019-04-05T06:34:31.191Z,15.00
2019-04-05T06:37:01.515Z,15.00
2019-04-05T06:39:32.724Z,15.10
2019-04-05T06:42:01.263Z,15.20
2019-04-05T06:44:33.058Z,15.20
2019-04-05T06:47:01.968Z,15.00
2019-04-05T06:49:31.969Z,15.10
2019-04-05T06:52:00.715Z,15.30
2019-04-05T06:54:32.665Z,15.60
2019-04-05T06:57:01.625Z,15.80
2019-04-05T06:59:33.911Z,15.80
2019-04-05T07:02:03.333Z,16.40
2019-04-05T07:04:37.774Z,16.70
2019-04-05T07:07:09.090Z,16.70
2019-04-05T07:09:37.827Z,16.40
2019-04-05T07:12:08.021Z,16.40
2019-04-05T07:14:41.020Z,16.50
2019-04-05T07:17:13.154Z,16.60
2019-04-05T07:19:41.847Z,16.90
2019-04-05T07:22:13.282Z,16.80
2019-04-05T07:24:42.790Z,17.40
2019-04-05T07:27:11.648Z,17.70
2019-04-05T07:29:40.460Z,18.10
2019-04-05T07:32:09.679Z,18.30
2019-04-05T07:34:39.980Z,18.30
2019-04-05T07:37:10.149Z,18.50
2019-04-05T07:39:39.790Z,18.40
2019-04-05T07:42:08.509Z,18.00
2019-04-05T07:44:40.690Z,18.30
2019-04-05T07:47:14.626Z,18.60
2019-04-05T07:49:43.437Z,18.70
2019-04-05T07:52:13.698Z,19.20
2019-04-05T07:54:45.024Z,19.00
2019-04-05T07:57:15.018Z,18.80
2019-04-05T07:59:45.817Z,18.90
2019-04-05T08:02:17.470Z,19.40
2019-04-05T08:04:48.227Z,19.80
2019-04-05T08:07:20.448Z,19.90
2019-04-05T08:09:50.871Z,19.70
2019-04-05T08:12:20.525Z,20.10
2019-04-05T08:14:53.294Z,20.50
2019-04-05T08:17:22.782Z,20.10
2019-04-05T08:19:51.620Z,20.40
2019-04-05T08:22:32.345Z,20.80
2019-04-05T08:25:00.692Z,21.00
2019-04-05T08:27:29.416Z,20.90
2019-04-05T08:29:58.187Z,21.10
2019-04-05T08:32:28.113Z,21.50
2019-04-05T08:34:56.955Z,21.60
2019-04-05T08:37:31.035Z,21.90
2019-04-05T08:39:59.855Z,22.30
2019-04-05T08:42:34.752Z,22.80
2019-04-05T08:44:59.154Z,22.60
2019-04-05T08:47:32.455Z,22.50
2019-04-05T08:50:04.532Z,22.30
2019-04-05T08:52:36.171Z,21.80
2019-04-05T08:55:07.910Z,21.90
2019-04-05T08:57:38.411Z,22.30
2019-04-05T09:00:08.874Z,22.60
2019-04-05T09:02:38.003Z,22.40
2019-04-05T09:05:07.913Z,22.40
2019-04-05T09:07:46.272Z,22.40
2019-04-05T09:10:16.488Z,22.10
2019-04-05T09:12:48.858Z,22.40
2019-04-05T09:15:20.025Z,22.60
2019-04-05T09:17:48.797Z,22.40
2019-04-05T09:20:26.949Z,22.40
2019-04-05T09:23:00.130Z,22.30
2019-04-05T09:25:30.474Z,22.30
2019-04-05T09:28:07.443Z,22.20
2019-04-05T09:30:38.027Z,22.20
2019-04-05T09:33:10.910Z,22.20
2019-04-05T09:35:41.734Z,22.30
2019-04-05T09:38:13.431Z,22.30
2019-04-05T09:40:43.792Z,22.20
2019-04-05T09:43:14.407Z,22.30
2019-04-05T09:45:44.437Z,22.20
2019-04-05T09:48:13.668Z,22.30
2019-04-05T09:50:46.106Z,22.20
2019-04-05T09:53:19.262Z,22.50
2019-04-05T09:55:47.974Z,22.30
2019-04-05T09:58:21.890Z,22.20
2019-04-05T10:00:53.812Z,22.80
2019-04-05T10:03:22.823Z,22.70
2019-04-05T10:06:10.365Z,23.00
2019-04-05T10:08:40.138Z,23.50
2019-04-05T10:11:10.605Z,24.00
2019-04-05T10:13:39.284Z,23.90
2019-04-05T10:16:09.057Z,23.70
2019-04-05T10:18:40.162Z,23.80
2019-04-05T10:21:08.945Z,23.60
2019-04-05T10:23:37.684Z,23.30
2019-04-05T10:26:06.508Z,23.20
2019-04-05T10:28:35.987Z,23.40
2019-04-05T10:31:05.989Z,23.10
2019-04-05T10:33:36.204Z,23.00
2019-04-05T10:36:06.071Z,23.00
2019-04-05T10:38:38.516Z,23.10
2019-04-05T10:41:07.314Z,22.80
2019-04-05T10:43:36.415Z,23.00
2019-04-05T10:46:06.444Z,23.10
2019-04-05T10:48:35.512Z,22.80
2019-04-05T10:51:04.740Z,22.50
2019-04-05T10:53:33.416Z,22.40
2019-04-05T10:56:03.532Z,22.30
2019-04-05T10:58:32.369Z,22.30
2019-04-05T11:01:01.072Z,22.40
2019-04-05T11:03:30.029Z,22.40
2019-04-05T11:06:00.448Z,22.30
2019-04-05T11:08:30.202Z,22.30
2019-04-05T11:10:58.968Z,22.40
2019-04-05T11:13:29.237Z,22.60
2019-04-05T11:15:58.417Z,22.70
2019-04-05T11:18:32.645Z,22.70
2019-04-05T11:21:01.768Z,22.80
2019-04-05T11:23:31.893Z,22.60
2019-04-05T11:26:00.858Z,22.70
2019-04-05T11:28:30.969Z,23.00
2019-04-05T11:30:59.760Z,22.90
2019-04-05T11:33:28.603Z,22.70
2019-04-05T11:35:58.019Z,22.40
2019-04-05T11:38:28.425Z,22.20
2019-04-05T11:40:58.790Z,22.40
2019-04-05T11:43:31.707Z,22.30
2019-04-05T11:46:02.295Z,22.40
2019-04-05T11:48:35.596Z,22.50
2019-04-05T11:51:04.409Z,22.50
2019-04-05T11:53:33.867Z,22.60
2019-04-05T11:56:14.561Z,22.50
2019-04-05T11:58:36.602Z,22.30
2019-04-05T12:01:07.589Z,22.30
2019-04-05T12:03:38.062Z,22.20
2019-04-05T12:06:09.887Z,22.10
2019-04-05T12:08:40.818Z,22.10
2019-04-05T12:11:09.692Z,22.10
2019-04-05T12:13:42.064Z,21.90
2019-04-05T12:16:14.497Z,21.80
2019-04-05T12:18:43.970Z,21.70
2019-04-05T12:21:15.790Z,21.70
2019-04-05T12:23:44.661Z,21.70
2019-04-05T12:26:13.526Z,21.60
2019-04-05T12:28:42.824Z,21.50
2019-04-05T12:31:12.009Z,21.60
2019-04-05T12:33:42.227Z,21.60
2019-04-05T12:36:11.434Z,21.70
2019-04-05T12:38:40.335Z,21.70
2019-04-05T12:41:11.052Z,21.50
2019-04-05T12:43:43.976Z,21.50
2019-04-05T12:46:15.033Z,21.60
2019-04-05T12:48:48.216Z,21.30
2019-04-05T12:51:16.984Z,21.20
2019-04-05T12:53:47.243Z,21.30
2019-04-05T12:56:20.562Z,21.20
2019-04-05T12:58:56.655Z,21.10
2019-04-05T13:01:30.242Z,21.00
2019-04-05T13:04:04.799Z,20.90
2019-04-05T13:06:36.523Z,21.00
2019-04-05T13:09:08.797Z,21.10
2019-04-05T13:11:41.758Z,21.30
2019-04-05T13:14:12.863Z,21.20
2019-04-05T13:16:41.464Z,21.00
2019-04-05T13:19:12.039Z,20.80
2019-04-05T13:21:41.921Z,20.70
2019-04-05T13:24:11.390Z,20.80
2019-04-05T13:26:42.011Z,20.80
2019-04-05T13:29:10.767Z,20.90
2019-04-05T13:31:41.755Z,20.90
2019-04-05T13:34:12.679Z,21.00
2019-04-05T13:36:41.557Z,21.00
2019-04-05T13:39:12.344Z,21.00
2019-04-05T13:41:44.077Z,20.90
2019-04-05T13:44:18.413Z,21.00
2019-04-05T13:46:48.420Z,21.00
2019-04-05T13:49:18.687Z,21.10
2019-04-05T13:51:48.751Z,21.00
2019-04-05T13:54:17.454Z,20.70
2019-04-05T13:56:46.901Z,20.60
2019-04-05T13:59:16.836Z,20.70
2019-04-05T14:01:50.604Z,20.70
2019-04-05T14:04:20.779Z,20.50
2019-04-05T14:06:54.193Z,20.50
2019-04-05T14:09:23.046Z,20.50
2019-04-05T14:11:53.760Z,20.50
2019-04-05T14:14:24.146Z,20.30
2019-04-05T14:16:55.719Z,20.30
2019-04-05T14:19:24.527Z,20.10
2019-04-05T14:21:53.766Z,20.00
2019-04-05T14:24:23.895Z,20.00
2019-04-05T14:26:52.678Z,20.10
2019-04-05T14:29:25.087Z,20.00
2019-04-05T14:31:54.987Z,19.90
2019-04-05T14:34:24.921Z,19.80
2019-04-05T14:36:53.593Z,19.80
2019-04-05T14:39:22.371Z,19.80
2019-04-05T14:41:51.220Z,19.70
2019-04-05T14:44:19.837Z,19.70
2019-04-05T14:46:52.190Z,19.70
2019-04-05T14:49:24.812Z,19.70
2019-04-05T14:51:56.559Z,19.50
2019-04-05T14:54:24.942Z,19.50
2019-04-05T14:56:54.126Z,19.40
2019-04-05T14:59:23.292Z,19.30
2019-04-05T15:01:52.063Z,19.20
2019-04-05T15:04:23.379Z,19.10
2019-04-05T15:06:52.105Z,19.00
2019-04-05T15:09:24.811Z,18.90
2019-04-05T15:11:52.399Z,18.90
2019-04-05T15:14:22.607Z,18.80
2019-04-05T15:16:52.714Z,18.80
2019-04-05T15:19:21.649Z,18.70
2019-04-05T15:21:50.915Z,18.60
2019-04-05T15:24:22.281Z,18.60
2019-04-05T15:26:52.154Z,18.40
2019-04-05T15:29:25.853Z,18.40
2019-04-05T15:31:55.487Z,18.30
2019-04-05T15:34:27.987Z,18.30
2019-04-05T15:36:55.649Z,18.20
2019-04-05T15:39:28.565Z,18.10
2019-04-05T15:41:58.521Z,18.10
2019-04-05T15:44:28.559Z,18.00
2019-04-05T15:46:57.316Z,18.00
2019-04-05T15:49:26.087Z,18.00
2019-04-05T15:51:58.741Z,17.90
2019-04-05T15:54:28.909Z,17.80
2019-04-05T15:56:57.752Z,17.70
2019-04-05T15:59:27.065Z,17.60
2019-04-05T16:01:56.053Z,17.50
2019-04-05T16:04:25.660Z,17.40
2019-04-05T16:06:55.513Z,17.40
2019-04-05T16:09:24.229Z,17.30
2019-04-05T16:11:54.063Z,17.20
2019-04-05T16:14:24.462Z,17.20
2019-04-05T16:16:55.509Z,17.10
2019-04-05T16:19:25.182Z,17.00
2019-04-05T16:21:54.088Z,16.90
2019-04-05T16:24:23.692Z,16.80
2019-04-05T16:26:52.403Z,16.70
2019-04-05T16:29:23.128Z,16.70
2019-04-05T16:31:54.412Z,16.60
2019-04-05T16:34:37.717Z,16.50
2019-04-05T16:37:10.734Z,16.30
2019-04-05T16:39:41.143Z,16.20
2019-04-05T16:42:12.579Z,16.20
2019-04-05T16:44:46.655Z,16.10
2019-04-05T16:47:16.563Z,16.10
2019-04-05T16:49:45.953Z,15.90
2019-04-05T16:52:14.774Z,15.90
2019-04-05T16:54:45.461Z,15.80
2019-04-05T16:57:15.312Z,15.70
2019-04-05T16:59:46.881Z,15.70
2019-04-05T17:02:15.501Z,15.50
2019-04-05T17:04:47.267Z,15.50
2019-04-05T17:07:16.039Z,15.40
2019-04-05T17:09:45.606Z,15.40
2019-04-05T17:12:14.412Z,15.30
2019-04-05T17:14:43.161Z,15.20
2019-04-05T17:17:14.578Z,15.10
2019-04-05T17:19:44.588Z,15.00
2019-04-05T17:22:13.949Z,14.90
2019-04-05T17:24:43.326Z,14.90
2019-04-05T17:27:12.994Z,14.80
2019-04-05T17:29:44.675Z,14.70
2019-04-05T17:32:25.429Z,14.60
2019-04-05T17:34:54.184Z,14.60
2019-04-05T17:37:22.970Z,14.50
2019-04-05T17:39:53.262Z,14.40
2019-04-05T17:42:21.968Z,14.40
2019-04-05T17:44:54.176Z,14.30
2019-04-05T17:47:22.942Z,14.20
2019-04-05T17:49:53.034Z,14.00
2019-04-05T17:52:24.733Z,14.00
2019-04-05T17:54:57.562Z,14.00
2019-04-05T17:57:27.042Z,13.90
2019-04-05T17:59:58.964Z,13.80
2019-04-05T18:02:29.387Z,13.80
2019-04-05T18:04:58.146Z,13.60
2019-04-05T18:07:27.908Z,13.50
2019-04-05T18:09:56.875Z,13.50
2019-04-05T18:12:27.293Z,13.40
2019-04-05T18:14:56.103Z,13.40
2019-04-05T18:17:26.606Z,13.30
2019-04-05T18:19:57.986Z,13.30
2019-04-05T18:22:26.958Z,13.20
2019-04-05T18:25:00.348Z,13.20
2019-04-05T18:27:30.430Z,13.20
2019-04-05T18:30:00.526Z,13.10
2019-04-05T18:32:33.307Z,13.10
2019-04-05T18:35:05.145Z,13.00
2019-04-05T18:37:35.346Z,12.90
2019-04-05T18:40:07.094Z,12.90
2019-04-05T18:42:41.688Z,12.90
2019-04-05T18:45:10.501Z,12.90
2019-04-05T18:47:40.802Z,12.80
2019-04-05T18:50:10.359Z,12.80
2019-04-05T18:52:39.077Z,12.80
2019-04-05T18:55:08.518Z,12.70
2019-04-05T18:57:40.181Z,12.60
2019-04-05T19:00:09.966Z,12.50
2019-04-05T19:02:40.138Z,12.40
2019-04-05T19:05:09.595Z,12.40
2019-04-05T19:07:40.942Z,12.40
2019-04-05T19:10:09.839Z,12.30
2019-04-05T19:12:38.635Z,12.20
2019-04-05T19:15:09.836Z,12.10
2019-04-05T19:17:41.390Z,12.10
2019-04-05T19:20:13.035Z,12.00
2019-04-05T19:22:43.099Z,11.90
2019-04-05T19:25:12.059Z,11.90
2019-04-05T19:27:41.553Z,11.90
2019-04-05T19:50:22.207Z,11.60
2019-04-05T19:52:51.041Z,11.60
2019-04-05T19:55:21.230Z,11.40
2019-04-05T19:57:50.089Z,11.30
2019-04-05T20:00:21.819Z,11.30
2019-04-05T20:02:50.578Z,11.20
2019-04-05T20:05:19.264Z,11.10
2019-04-05T20:07:50.960Z,11.10
2019-04-05T20:10:20.360Z,11.00
2019-04-05T20:12:50.653Z,11.00
2019-04-05T20:15:21.480Z,10.90
2019-04-05T20:17:52.226Z,10.90
2019-04-05T20:20:21.952Z,10.90
2019-04-05T20:22:50.865Z,10.80
2019-04-05T20:25:23.044Z,10.80
2019-04-05T20:27:51.824Z,10.70
2019-04-05T20:30:20.640Z,10.70
2019-04-05T20:32:50.809Z,10.70
2019-04-05T20:35:20.961Z,10.70
2019-04-05T20:37:50.271Z,10.60
2019-04-05T20:40:20.360Z,10.60
2019-04-05T20:42:52.016Z,10.60
2019-04-05T20:45:22.570Z,10.50
2019-04-05T20:47:52.631Z,10.50
2019-04-05T20:50:21.471Z,10.50
2019-04-05T20:52:52.973Z,10.50
2019-04-05T20:55:21.788Z,10.50
2019-04-05T20:57:51.311Z,10.40
2019-04-05T21:00:22.364Z,10.30
2019-04-05T21:02:53.774Z,10.30
2019-04-05T21:05:25.596Z,10.30
2019-04-05T21:07:54.828Z,10.30
2019-04-05T21:10:23.699Z,10.30
2019-04-05T21:12:52.465Z,10.20
2019-04-05T21:15:24.612Z,10.20
2019-04-05T21:17:53.148Z,10.10
2019-04-05T21:20:22.076Z,10.10
2019-04-05T21:22:52.033Z,10.10
2019-04-05T21:25:28.176Z,10.00
2019-04-05T21:27:54.047Z,10.00
2019-04-05T21:30:22.857Z,10.00
2019-04-05T21:32:58.452Z,10.00
2019-04-05T21:35:32.678Z,10.00
2019-04-05T21:38:02.921Z,10.00
2019-04-05T21:40:31.734Z,9.90
2019-04-05T21:43:00.415Z,9.90
2019-04-05T21:45:37.275Z,9.90
2019-04-05T21:48:06.029Z,9.90
2019-04-05T21:50:37.987Z,9.80
2019-04-05T21:53:08.425Z,9.80
2019-04-05T21:55:40.215Z,9.80
2019-04-05T21:58:09.143Z,9.80
2019-04-05T22:00:46.657Z,9.80
2019-04-05T22:03:16.588Z,9.80
2019-04-05T22:05:45.513Z,9.70
2019-04-05T22:08:16.043Z,9.70
2019-04-05T22:10:44.845Z,9.80
2019-04-05T22:13:18.851Z,9.80
2019-04-05T22:15:48.990Z,9.60
2019-04-05T22:18:18.559Z,9.60
2019-04-05T22:20:49.249Z,9.60
2019-04-05T22:23:18.809Z,9.60
2019-04-05T22:25:49.281Z,9.60
2019-04-05T22:28:21.063Z,9.60
2019-04-05T22:30:49.900Z,9.50
2019-04-05T22:33:19.975Z,9.50
2019-04-05T22:35:48.858Z,9.60
2019-04-05T22:38:18.922Z,9.60
2019-04-05T22:40:50.300Z,9.60
2019-04-05T22:43:20.246Z,9.60
2019-04-05T22:45:52.210Z,9.50
2019-04-05T22:48:24.174Z,9.50
2019-04-05T22:50:56.026Z,9.40
2019-04-05T22:53:26.712Z,9.40
2019-04-05T22:55:55.586Z,9.40
2019-04-05T22:58:24.453Z,9.30
2019-04-05T23:00:53.175Z,9.30
2019-04-05T23:03:23.576Z,9.40
2019-04-05T23:05:56.375Z,9.30
2019-04-05T23:08:25.779Z,9.30
2019-04-05T23:10:54.991Z,9.30
2019-04-05T23:13:23.776Z,9.30
2019-04-05T23:15:52.770Z,9.30
2019-04-05T23:18:21.409Z,9.30
2019-04-05T23:20:55.857Z,9.20
2019-04-05T23:23:24.761Z,9.20
2019-04-05T23:25:57.518Z,9.10
2019-04-05T23:28:27.863Z,9.10
2019-04-05T23:30:57.082Z,9.10
2019-04-05T23:33:27.031Z,9.10
2019-04-05T23:35:56.407Z,9.10
2019-04-05T23:38:26.068Z,9.00
2019-04-05T23:40:54.785Z,9.00
2019-04-05T23:43:23.743Z,9.00
2019-04-05T23:45:54.000Z,8.90
2019-04-05T23:48:24.215Z,8.90
2019-04-05T23:50:54.585Z,8.90
2019-04-05T23:53:24.574Z,8.80
2019-04-05T23:55:55.700Z,8.70
2019-04-05T23:58:27.351Z,8.70
